createdAt,value
2023-03-06T00:01:18.771Z,15.30
2023-03-06T00:05:24.739Z,13.95
2023-03-06T00:07:29.083Z,17.27
2023-03-06T00:09:31.993Z,22.20
2023-03-06T00:11:34.802Z,59.53
2023-03-06T00:13:39.026Z,100.07
2023-03-06T00:15:42.248Z,74.38
2023-03-06T00:17:45.242Z,75.50
2023-03-06T00:19:48.343Z,87.97
2023-03-06T00:21:51.620Z,74.97
2023-03-06T00:23:56.008Z,51.35
2023-03-06T00:25:59.014Z,30.25
2023-03-06T00:28:01.944Z,26.85
2023-03-06T00:30:06.352Z,28.73
2023-03-06T00:32:10.363Z,25.70
2023-03-06T00:34:13.531Z,21.48
2023-03-06T00:36:16.400Z,28.70
2023-03-06T00:38:19.480Z,26.30
2023-03-06T00:40:24.198Z,29.70
2023-03-06T00:42:27.142Z,47.50
2023-03-06T00:44:30.040Z,65.35
2023-03-06T00:46:33.061Z,54.35
2023-03-06T00:48:36.150Z,42.78
2023-03-06T00:50:39.216Z,37.42
2023-03-06T00:52:42.404Z,30.58
2023-03-06T00:54:45.320Z,29.17
2023-03-06T00:56:49.751Z,32.33
2023-03-06T00:58:52.780Z,32.20
2023-03-06T01:00:55.721Z,31.50
2023-03-06T01:02:58.828Z,31.52
2023-03-06T01:05:01.948Z,30.42
2023-03-06T01:07:04.869Z,27.55
2023-03-06T01:09:07.857Z,37.67
2023-03-06T01:11:11.118Z,33.88
2023-03-06T01:13:15.586Z,43.83
2023-03-06T01:15:18.824Z,36.55
2023-03-06T01:17:21.777Z,37.15
2023-03-06T01:19:24.676Z,33.83
2023-03-06T01:21:27.519Z,36.67
2023-03-06T01:23:31.014Z,41.75
2023-03-06T01:25:33.853Z,32.67
2023-03-06T01:27:36.876Z,31.35
2023-03-06T01:29:41.648Z,28.88
2023-03-06T01:31:44.958Z,31.38
2023-03-06T01:33:47.804Z,33.13
2023-03-06T01:35:51.320Z,27.65
2023-03-06T01:37:54.376Z,27.73
2023-03-06T01:39:57.415Z,31.15
2023-03-06T01:42:00.357Z,24.83
2023-03-06T01:44:03.276Z,21.25
2023-03-06T01:46:25.980Z,23.58
2023-03-06T01:48:29.550Z,18.65
2023-03-06T01:50:32.489Z,19.70
2023-03-06T01:52:40.412Z,17.27
2023-03-06T01:54:47.369Z,19.25
2023-03-06T01:56:53.101Z,16.88
2023-03-06T01:58:56.557Z,19.75
2023-03-06T02:00:59.826Z,17.60
2023-03-06T02:03:08.688Z,21.15
2023-03-06T02:05:14.167Z,17.25
2023-03-06T02:07:20.852Z,15.10
2023-03-06T02:09:23.850Z,18.15
2023-03-06T02:11:29.787Z,20.42
2023-03-06T02:13:32.973Z,19.55
2023-03-06T02:15:35.832Z,20.48
2023-03-06T02:17:39.123Z,18.48
2023-03-06T02:19:52.739Z,17.02
2023-03-06T02:21:56.190Z,19.00
2023-03-06T02:24:13.441Z,16.60
2023-03-06T02:26:18.615Z,17.88
2023-03-06T02:28:23.172Z,16.58
2023-03-06T02:30:27.966Z,18.30
2023-03-06T02:32:30.890Z,21.80
2023-03-06T02:34:57.056Z,15.85
2023-03-06T02:37:03.054Z,18.08
2023-03-06T02:39:06.773Z,14.70
2023-03-06T02:41:09.822Z,16.52
2023-03-06T02:43:17.220Z,18.00
2023-03-06T02:45:25.431Z,15.15
2023-03-06T02:47:28.837Z,15.15
2023-03-06T02:49:31.779Z,15.90
2023-03-06T02:51:34.819Z,17.80
2023-03-06T02:53:37.659Z,14.30
2023-03-06T02:55:40.688Z,17.45
2023-03-06T02:57:43.790Z,13.77
2023-03-06T02:59:48.317Z,14.77
2023-03-06T03:01:51.873Z,13.95
2023-03-06T03:03:55.069Z,18.73
2023-03-06T03:05:57.968Z,14.82
2023-03-06T03:08:05.729Z,12.70
2023-03-06T03:10:10.594Z,15.25
2023-03-06T03:12:13.526Z,14.15
2023-03-06T03:14:17.075Z,13.63
2023-03-06T03:18:26.462Z,14.18
2023-03-06T03:20:29.817Z,12.95
2023-03-06T03:22:32.728Z,11.68
2023-03-06T03:24:35.705Z,14.93
2023-03-06T03:26:39.241Z,14.02
2023-03-06T03:28:50.865Z,13.98
2023-03-06T03:30:56.185Z,18.77
2023-03-06T03:33:00.779Z,13.80
2023-03-06T03:35:04.120Z,13.90
2023-03-06T03:37:08.082Z,20.17
2023-03-06T03:39:11.098Z,16.98
2023-03-06T03:41:14.414Z,19.08
2023-03-06T03:43:18.358Z,20.65
2023-03-06T03:45:22.575Z,18.98
2023-03-06T03:47:25.538Z,19.55
2023-03-06T03:49:29.991Z,19.00
2023-03-06T03:51:34.631Z,19.55
2023-03-06T03:53:37.762Z,22.27
2023-03-06T03:55:41.045Z,19.15
2023-03-06T03:57:44.117Z,20.17
2023-03-06T03:59:48.006Z,23.40
2023-03-06T04:02:17.484Z,19.95
2023-03-06T04:04:36.168Z,21.08
2023-03-06T04:06:39.626Z,19.13
2023-03-06T04:08:42.881Z,19.58
2023-03-06T04:10:45.836Z,17.13
2023-03-06T04:12:50.955Z,17.92
2023-03-06T04:14:54.020Z,18.27
2023-03-06T04:16:57.949Z,18.77
2023-03-06T04:19:01.697Z,17.88
2023-03-06T04:21:06.497Z,19.17
2023-03-06T04:23:10.020Z,21.08
2023-03-06T04:25:14.076Z,18.67
2023-03-06T04:27:17.420Z,16.25
2023-03-06T04:29:20.375Z,15.65
2023-03-06T04:31:23.426Z,14.13
2023-03-06T04:33:26.439Z,16.67
2023-03-06T04:35:30.200Z,17.83
2023-03-06T04:37:39.920Z,17.92
2023-03-06T04:39:43.000Z,13.30
2023-03-06T04:41:45.945Z,16.30
2023-03-06T04:43:49.315Z,16.45
2023-03-06T04:45:52.249Z,13.60
2023-03-06T04:47:55.831Z,13.35
2023-03-06T04:49:58.771Z,11.77
2023-03-06T04:52:01.675Z,11.57
2023-03-06T04:54:06.300Z,13.02
2023-03-06T04:56:09.725Z,14.53
2023-03-06T04:58:14.263Z,15.77
2023-03-06T05:00:20.123Z,12.40
2023-03-06T05:02:24.620Z,14.27
2023-03-06T05:04:27.789Z,11.50
2023-03-06T05:06:30.702Z,11.60
2023-03-06T05:08:33.673Z,11.73
2023-03-06T05:10:37.997Z,11.73
2023-03-06T05:12:41.102Z,11.63
2023-03-06T05:14:46.663Z,11.85
2023-03-06T05:16:50.996Z,13.10
2023-03-06T05:18:53.962Z,12.25
2023-03-06T05:20:59.885Z,12.43
2023-03-06T05:23:02.836Z,11.95
2023-03-06T05:25:06.845Z,12.88
2023-03-06T05:27:11.348Z,12.82
2023-03-06T05:29:14.264Z,11.55
2023-03-06T05:31:17.554Z,14.35
2023-03-06T05:33:20.515Z,13.27
2023-03-06T05:35:24.286Z,13.48
2023-03-06T05:37:27.320Z,16.70
2023-03-06T05:39:30.528Z,13.23
2023-03-06T05:41:33.579Z,17.20
2023-03-06T05:43:38.010Z,15.55
2023-03-06T05:45:41.616Z,12.63
2023-03-06T05:47:44.610Z,17.08
2023-03-06T05:49:47.638Z,13.90
2023-03-06T05:51:50.556Z,18.05
2023-03-06T05:53:53.574Z,16.83
2023-03-06T05:55:58.239Z,16.50
2023-03-06T05:58:01.242Z,18.15
2023-03-06T06:00:07.386Z,15.48
2023-03-06T06:02:16.009Z,16.40
2023-03-06T06:04:19.179Z,16.05
2023-03-06T06:06:22.319Z,19.73
2023-03-06T06:08:25.286Z,15.85
2023-03-06T06:10:28.218Z,16.65
2023-03-06T06:12:31.649Z,18.23
2023-03-06T06:14:35.378Z,15.73
2023-03-06T06:16:39.757Z,18.73
2023-03-06T06:18:42.858Z,19.83
2023-03-06T06:20:45.837Z,20.05
2023-03-06T06:22:48.816Z,19.30
2023-03-06T06:24:51.887Z,16.45
2023-03-06T06:26:56.548Z,16.83
2023-03-06T06:29:00.344Z,18.85
2023-03-06T06:31:09.898Z,15.07
2023-03-06T06:33:14.278Z,20.90
2023-03-06T06:35:17.446Z,22.92
2023-03-06T06:37:20.404Z,18.13
2023-03-06T06:39:25.017Z,18.27
2023-03-06T06:41:50.539Z,19.83
2023-03-06T06:43:51.870Z,20.92
2023-03-06T06:46:05.750Z,21.27
2023-03-06T06:48:19.559Z,18.92
2023-03-06T06:50:22.789Z,21.15
2023-03-06T06:52:26.168Z,19.73
2023-03-06T06:54:29.361Z,16.25
2023-03-06T06:56:32.637Z,22.08
2023-03-06T06:58:35.467Z,21.90
2023-03-06T07:00:38.427Z,21.52
2023-03-06T07:02:41.567Z,22.65
2023-03-06T07:05:00.658Z,19.60
2023-03-06T07:07:05.288Z,19.80
2023-03-06T07:09:08.380Z,20.52
2023-03-06T07:11:14.333Z,20.60
2023-03-06T07:13:17.327Z,19.85
2023-03-06T07:15:20.358Z,21.05
2023-03-06T07:17:23.541Z,19.13
2023-03-06T07:19:26.692Z,16.50
2023-03-06T07:21:31.403Z,17.27
2023-03-06T07:23:34.370Z,16.60
2023-03-06T07:25:38.248Z,21.67
2023-03-06T07:27:41.246Z,22.23
2023-03-06T07:29:44.744Z,18.63
2023-03-06T07:31:48.039Z,17.00
2023-03-06T07:33:51.442Z,21.65
2023-03-06T07:35:54.334Z,20.58
2023-03-06T07:37:58.862Z,22.60
2023-03-06T07:40:02.170Z,20.45
2023-03-06T07:42:05.391Z,22.00
2023-03-06T07:44:08.261Z,21.05
2023-03-06T07:46:13.152Z,18.35
2023-03-06T07:48:16.422Z,22.75
2023-03-06T07:50:20.312Z,19.63
2023-03-06T07:52:23.530Z,22.60
2023-03-06T07:54:30.943Z,20.05
2023-03-06T07:56:35.358Z,19.02
2023-03-06T07:58:39.106Z,19.13
2023-03-06T08:00:42.018Z,23.15
2023-03-06T08:02:45.150Z,18.83
2023-03-06T08:04:53.850Z,19.73
2023-03-06T08:06:59.922Z,20.75
2023-03-06T08:09:03.334Z,20.23
2023-03-06T08:11:08.354Z,19.17
2023-03-06T08:13:11.264Z,24.52
2023-03-06T08:15:14.869Z,18.55
2023-03-06T08:17:17.810Z,18.80
2023-03-06T08:19:20.917Z,17.02
2023-03-06T08:21:25.798Z,16.35
2023-03-06T08:23:28.840Z,19.00
2023-03-06T08:25:32.070Z,16.60
2023-03-06T08:27:36.901Z,22.92
2023-03-06T08:29:39.971Z,20.95
2023-03-06T08:31:44.803Z,19.52
2023-03-06T08:33:47.953Z,16.33
2023-03-06T08:35:50.997Z,17.17
2023-03-06T08:37:53.922Z,22.75
2023-03-06T08:39:57.122Z,20.40
2023-03-06T08:42:00.110Z,22.42
2023-03-06T08:44:05.418Z,21.17
2023-03-06T08:46:08.447Z,21.42
2023-03-06T08:48:11.698Z,18.08
2023-03-06T08:50:15.040Z,20.15
2023-03-06T08:52:18.073Z,20.40
2023-03-06T08:54:21.407Z,20.35
2023-03-06T08:56:26.781Z,20.77
2023-03-06T08:58:29.830Z,12.63
2023-03-06T09:00:34.627Z,22.20
2023-03-06T09:02:37.586Z,19.27
2023-03-06T09:04:40.667Z,20.98
2023-03-06T09:06:45.677Z,20.05
2023-03-06T09:08:50.807Z,21.60
2023-03-06T09:10:53.786Z,22.90
2023-03-06T09:12:56.845Z,16.30
2023-03-06T09:14:59.696Z,19.25
2023-03-06T09:17:04.147Z,16.58
2023-03-06T09:19:07.206Z,19.10
2023-03-06T09:21:10.986Z,19.77
2023-03-06T09:23:13.971Z,23.88
2023-03-06T09:25:20.720Z,19.33
2023-03-06T09:27:23.654Z,18.05
2023-03-06T09:29:26.621Z,19.98
2023-03-06T09:31:30.601Z,21.17
2023-03-06T09:33:35.095Z,18.17
2023-03-06T09:35:43.095Z,18.80
2023-03-06T09:37:46.143Z,17.77
2023-03-06T09:39:49.305Z,17.70
2023-03-06T09:41:53.005Z,17.23
2023-03-06T09:44:05.061Z,19.40
2023-03-06T09:46:19.614Z,18.60
2023-03-06T09:48:29.281Z,19.38
2023-03-06T09:50:41.118Z,20.73
2023-03-06T09:52:52.048Z,18.15
2023-03-06T09:54:58.058Z,16.50
2023-03-06T09:57:01.009Z,15.80
2023-03-06T09:59:13.007Z,16.92
2023-03-06T10:01:21.406Z,17.85
2023-03-06T10:03:29.781Z,18.63
2023-03-06T10:05:39.844Z,17.48
2023-03-06T10:07:47.318Z,14.75
2023-03-06T10:09:56.436Z,19.98
2023-03-06T10:12:01.191Z,16.08
2023-03-06T10:14:18.039Z,16.77
2023-03-06T10:16:27.988Z,16.88
2023-03-06T10:18:30.908Z,20.00
2023-03-06T10:20:41.499Z,20.55
2023-03-06T10:23:00.845Z,17.92
2023-03-06T10:25:15.996Z,18.08
2023-03-06T10:27:37.821Z,17.17
2023-03-06T10:30:02.062Z,17.02
2023-03-06T10:32:17.972Z,19.45
2023-03-06T10:34:24.164Z,15.73
2023-03-06T10:36:30.065Z,17.42
2023-03-06T10:38:38.946Z,14.18
2023-03-06T10:40:49.436Z,18.00
2023-03-06T10:43:05.086Z,10.07
2023-03-06T10:45:16.223Z,11.63
2023-03-06T10:47:28.854Z,10.60
2023-03-06T10:49:35.790Z,10.55
2023-03-06T10:51:40.218Z,9.70
2023-03-06T10:53:52.048Z,14.13
2023-03-06T10:55:57.733Z,11.77
2023-03-06T11:00:32.261Z,11.55
2023-03-06T11:02:38.837Z,12.93
2023-03-06T11:04:46.334Z,10.88
2023-03-06T11:07:05.863Z,10.13
2023-03-06T11:09:16.566Z,8.88
2023-03-06T11:11:36.829Z,13.70
2023-03-06T11:13:42.451Z,9.65
2023-03-06T11:15:57.898Z,8.13
2023-03-06T11:18:04.640Z,17.48
2023-03-06T11:20:18.788Z,21.95
2023-03-06T11:22:23.343Z,21.23
2023-03-06T11:24:27.789Z,52.88
2023-03-06T11:26:39.819Z,16.95
2023-03-06T11:28:47.655Z,15.85
2023-03-06T11:30:54.887Z,12.60
2023-03-06T11:33:01.816Z,10.98
2023-03-06T11:35:10.129Z,22.25
2023-03-06T11:37:22.291Z,14.57
2023-03-06T11:39:35.336Z,80.32
2023-03-06T11:41:49.177Z,27.52
2023-03-06T11:44:01.286Z,39.60
2023-03-06T11:46:15.670Z,26.25
2023-03-06T11:48:26.196Z,12.70
2023-03-06T11:50:34.158Z,13.57
2023-03-06T11:52:48.615Z,39.22
2023-03-06T11:54:56.236Z,32.63
2023-03-06T11:57:02.801Z,19.67
2023-03-06T11:59:22.640Z,16.45
2023-03-06T12:01:29.608Z,6.45
2023-03-06T12:03:54.732Z,21.08
2023-03-06T12:06:04.029Z,17.05
2023-03-06T12:08:17.769Z,60.17
2023-03-06T12:10:28.060Z,31.35
2023-03-06T12:13:01.958Z,57.50
2023-03-06T12:15:22.813Z,61.08
2023-03-06T12:17:37.738Z,20.83
2023-03-06T12:19:54.872Z,28.95
2023-03-06T12:22:13.199Z,28.73
2023-03-06T12:24:34.117Z,19.85
2023-03-06T12:26:57.708Z,25.25
2023-03-06T12:29:20.530Z,7.30
2023-03-06T12:31:40.430Z,11.88
2023-03-06T12:33:57.639Z,7.30
2023-03-06T12:36:17.807Z,16.45
2023-03-06T12:38:45.579Z,8.40
2023-03-06T12:41:03.029Z,6.63
2023-03-06T12:43:41.708Z,12.93
2023-03-06T12:45:46.712Z,11.10
2023-03-06T12:47:56.349Z,19.95
2023-03-06T12:50:03.422Z,25.08
2023-03-06T12:52:08.246Z,39.70
2023-03-06T12:54:14.573Z,24.75
2023-03-06T12:58:48.354Z,23.63
2023-03-06T13:01:07.402Z,9.65
2023-03-06T13:03:18.234Z,14.52
2023-03-06T13:05:37.882Z,19.02
2023-03-06T13:07:58.118Z,40.80
2023-03-06T13:10:11.493Z,6.05
2023-03-06T13:12:28.423Z,20.17
2023-03-06T13:14:54.774Z,13.90
2023-03-06T13:17:39.614Z,23.25
2023-03-06T13:19:42.624Z,32.42
2023-03-06T13:22:02.183Z,10.95
2023-03-06T13:24:06.287Z,14.75
2023-03-06T13:26:12.203Z,12.23
2023-03-06T13:28:26.976Z,11.85
2023-03-06T13:30:45.598Z,15.73
2023-03-06T13:32:49.672Z,12.52
2023-03-06T13:34:52.782Z,12.05
2023-03-06T13:37:34.320Z,14.85
2023-03-06T13:40:10.208Z,16.40
2023-03-06T13:42:28.256Z,17.85
2023-03-06T13:44:51.888Z,14.77
2023-03-06T13:47:01.931Z,17.65
2023-03-06T13:49:14.060Z,22.88
2023-03-06T13:51:24.966Z,40.70
2023-03-06T13:54:03.209Z,17.20
2023-03-06T13:56:25.847Z,20.42
2023-03-06T13:58:42.210Z,54.67
2023-03-06T14:01:13.458Z,25.80
2023-03-06T14:03:44.012Z,129.30
2023-03-06T14:05:48.945Z,74.40
2023-03-06T14:08:05.685Z,12.65
2023-03-06T14:10:22.614Z,20.30
2023-03-06T14:12:30.702Z,179.48
2023-03-06T14:14:39.512Z,203.50
2023-03-06T14:16:50.002Z,18.58
2023-03-06T14:18:57.330Z,15.05
2023-03-06T14:21:01.975Z,19.70
2023-03-06T14:23:24.551Z,27.05
2023-03-06T14:25:31.747Z,14.15
2023-03-06T14:27:49.596Z,24.50
2023-03-06T14:30:05.884Z,14.32
2023-03-06T14:34:20.874Z,27.45
2023-03-06T14:36:32.440Z,36.47
2023-03-06T14:38:39.329Z,42.40
2023-03-06T14:40:45.401Z,31.15
2023-03-06T14:42:48.377Z,23.65
2023-03-06T14:45:01.620Z,25.92
2023-03-06T14:47:26.691Z,41.83
2023-03-06T14:49:31.262Z,20.83
2023-03-06T14:51:41.681Z,44.70
2023-03-06T14:53:46.005Z,15.90
2023-03-06T14:55:51.218Z,12.07
2023-03-06T14:57:58.705Z,54.38
2023-03-06T15:00:01.937Z,25.83
2023-03-06T15:02:09.209Z,12.95
2023-03-06T15:04:20.492Z,20.33
2023-03-06T15:06:27.681Z,49.42
2023-03-06T15:08:34.305Z,21.98
2023-03-06T15:10:37.808Z,22.15
2023-03-06T15:12:40.887Z,26.40
2023-03-06T15:14:56.438Z,25.42
2023-03-06T15:17:32.268Z,27.38
2023-03-06T15:19:40.817Z,33.03
2023-03-06T15:21:48.106Z,19.48
2023-03-06T15:23:52.230Z,63.92
2023-03-06T15:26:00.932Z,16.42
2023-03-06T15:28:23.103Z,15.95
2023-03-06T15:30:30.286Z,20.50
2023-03-06T15:32:36.027Z,15.15
2023-03-06T15:34:38.916Z,19.35
2023-03-06T15:36:43.454Z,26.38
2023-03-06T15:38:48.725Z,53.92
2023-03-06T15:40:56.298Z,26.67
2023-03-06T15:43:00.152Z,25.02
2023-03-06T15:45:16.089Z,22.60
2023-03-06T15:47:19.008Z,27.45
2023-03-06T15:49:22.031Z,18.98
2023-03-06T15:51:25.284Z,24.58
2023-03-06T15:53:28.872Z,21.77
2023-03-06T15:55:33.816Z,31.58
2023-03-06T15:57:36.921Z,27.15
2023-03-06T15:59:44.491Z,21.98
2023-03-06T16:01:47.771Z,21.95
2023-03-06T16:03:50.652Z,25.67
2023-03-06T16:05:53.640Z,25.02
2023-03-06T16:07:56.967Z,31.90
2023-03-06T16:09:59.987Z,28.42
2023-03-06T16:12:05.033Z,25.38
2023-03-06T16:14:18.988Z,37.80
2023-03-06T16:16:29.450Z,108.97
2023-03-06T16:18:32.430Z,164.68
2023-03-06T16:20:35.368Z,71.35
2023-03-06T16:22:38.369Z,72.80
2023-03-06T16:24:42.010Z,98.22
2023-03-06T16:26:47.186Z,115.10
2023-03-06T16:28:51.707Z,202.40
2023-03-06T16:30:54.679Z,55.72
2023-03-06T16:32:57.948Z,51.13
2023-03-06T16:35:00.917Z,72.50
2023-03-06T16:37:03.948Z,85.50
2023-03-06T16:39:07.376Z,111.65
2023-03-06T16:41:10.358Z,114.10
2023-03-06T16:43:13.782Z,308.73
2023-03-06T16:45:19.765Z,308.70
2023-03-06T16:47:22.747Z,340.00
2023-03-06T16:49:26.723Z,342.70
2023-03-06T16:51:29.730Z,127.53
2023-03-06T16:53:32.747Z,72.95
2023-03-06T16:55:35.633Z,50.60
2023-03-06T16:57:38.848Z,37.33
2023-03-06T16:59:42.368Z,25.58
2023-03-06T17:01:46.769Z,24.00
2023-03-06T17:03:49.747Z,24.55
2023-03-06T17:05:52.617Z,29.08
2023-03-06T17:07:55.611Z,39.40
2023-03-06T17:09:58.584Z,32.80
2023-03-06T17:12:01.658Z,33.90
2023-03-06T17:14:04.589Z,40.47
2023-03-06T17:16:09.797Z,33.65
2023-03-06T17:18:14.195Z,23.75
2023-03-06T17:20:17.128Z,20.60
2023-03-06T17:22:20.799Z,29.00
2023-03-06T17:24:23.830Z,35.15
2023-03-06T17:26:26.711Z,44.20
2023-03-06T17:28:29.693Z,47.05
2023-03-06T17:30:32.647Z,52.08
2023-03-06T17:32:35.715Z,56.78
2023-03-06T17:34:40.304Z,52.05
2023-03-06T17:36:44.394Z,58.13
2023-03-06T17:38:47.514Z,46.53
2023-03-06T17:40:50.458Z,32.42
2023-03-06T17:42:53.318Z,35.15
2023-03-06T17:44:57.681Z,31.88
2023-03-06T17:47:00.584Z,29.08
2023-03-06T17:49:03.547Z,31.13
2023-03-06T17:51:08.597Z,31.13
2023-03-06T17:53:11.723Z,30.83
2023-03-06T17:55:14.861Z,30.13
2023-03-06T17:57:17.746Z,33.55
2023-03-06T17:59:20.690Z,44.72
2023-03-06T18:01:27.909Z,38.00
2023-03-06T18:03:30.757Z,52.53
2023-03-06T18:05:33.650Z,51.08
2023-03-06T18:07:38.404Z,59.97
2023-03-06T18:09:42.258Z,54.53
2023-03-06T18:11:45.408Z,65.65
2023-03-06T18:13:49.176Z,56.70
2023-03-06T18:15:52.158Z,69.30
2023-03-06T18:17:56.912Z,112.40
2023-03-06T18:20:00.016Z,129.43
2023-03-06T18:22:02.845Z,117.38
2023-03-06T18:24:08.215Z,86.53
2023-03-06T18:26:14.109Z,77.72
2023-03-06T18:28:17.046Z,94.40
2023-03-06T18:30:19.976Z,85.28
2023-03-06T18:32:23.162Z,67.38
2023-03-06T18:34:26.389Z,87.50
2023-03-06T18:36:30.925Z,189.05
2023-03-06T18:38:33.865Z,183.15
2023-03-06T18:40:38.295Z,218.88
2023-03-06T18:42:41.112Z,101.32
2023-03-06T18:44:47.996Z,147.32
2023-03-06T18:46:50.846Z,110.65
2023-03-06T18:48:55.312Z,77.15
2023-03-06T18:51:04.127Z,177.60
2023-03-06T18:53:07.017Z,37.58
2023-03-06T18:55:11.091Z,23.02
2023-03-06T18:57:15.676Z,17.77
2023-03-06T18:59:19.073Z,17.52
2023-03-06T19:01:22.825Z,16.20
2023-03-06T19:03:26.198Z,21.63
2023-03-06T19:05:29.238Z,21.85
2023-03-06T19:07:32.198Z,25.08
2023-03-06T19:09:35.209Z,19.58
2023-03-06T19:11:38.180Z,23.98
2023-03-06T19:13:42.742Z,38.88
2023-03-06T19:15:47.159Z,331.20
2023-03-06T19:17:51.712Z,169.57
2023-03-06T19:19:55.777Z,57.45
2023-03-06T19:21:59.394Z,45.60
2023-03-06T19:24:03.882Z,122.80
2023-03-06T19:26:07.823Z,103.28
2023-03-06T19:28:10.821Z,129.68
2023-03-06T19:30:16.534Z,170.18
2023-03-06T19:32:19.544Z,119.18
2023-03-06T19:34:22.465Z,99.80
2023-03-06T19:36:28.988Z,63.15
2023-03-06T19:38:31.835Z,37.30
2023-03-06T19:40:35.626Z,36.88
2023-03-06T19:42:38.437Z,27.55
2023-03-06T19:44:41.296Z,33.75
2023-03-06T19:46:45.732Z,37.40
2023-03-06T19:48:48.728Z,27.08
2023-03-06T19:50:51.555Z,28.90
2023-03-06T19:52:54.537Z,24.85
2023-03-06T19:54:57.325Z,49.33
2023-03-06T19:57:00.373Z,40.70
2023-03-06T19:59:03.850Z,53.13
2023-03-06T20:01:08.130Z,54.33
2023-03-06T20:03:12.428Z,56.58
2023-03-06T20:05:15.580Z,52.05
2023-03-06T20:07:18.439Z,46.55
2023-03-06T20:09:22.190Z,41.15
2023-03-06T20:11:27.244Z,41.20
2023-03-06T20:13:30.795Z,42.28
2023-03-06T20:15:35.374Z,41.03
2023-03-06T20:17:40.874Z,48.87
2023-03-06T20:21:48.171Z,39.00
2023-03-06T20:23:53.129Z,37.25
2023-03-06T20:25:56.066Z,41.95
2023-03-06T20:27:58.966Z,38.28
2023-03-06T20:30:02.464Z,39.30
2023-03-06T20:32:06.584Z,36.20
2023-03-06T20:34:12.126Z,37.97
2023-03-06T20:36:18.999Z,41.72
2023-03-06T20:38:22.492Z,37.80
2023-03-06T20:40:25.828Z,36.22
2023-03-06T20:42:29.201Z,31.73
2023-03-06T20:44:33.966Z,31.98
2023-03-06T20:46:37.848Z,39.22
2023-03-06T20:48:42.268Z,30.55
2023-03-06T20:50:46.658Z,36.97
2023-03-06T20:52:54.325Z,33.03
2023-03-06T20:54:57.414Z,31.65
2023-03-06T20:57:00.185Z,171.55
2023-03-06T20:59:03.692Z,180.18
2023-03-06T21:01:06.675Z,135.45
2023-03-06T21:03:09.616Z,101.85
2023-03-06T21:05:12.581Z,79.07
2023-03-06T21:07:16.627Z,92.63
2023-03-06T21:09:20.937Z,64.90
2023-03-06T21:11:24.211Z,76.78
2023-03-06T21:13:26.979Z,83.97
2023-03-06T21:15:31.041Z,70.30
2023-03-06T21:17:34.884Z,71.57
2023-03-06T21:19:37.836Z,67.43
2023-03-06T21:21:40.734Z,97.50
2023-03-06T21:23:43.741Z,68.28
2023-03-06T21:25:52.559Z,83.85
2023-03-06T21:27:55.827Z,90.90
2023-03-06T21:29:58.907Z,90.47
2023-03-06T21:32:01.853Z,88.38
2023-03-06T21:34:05.580Z,77.60
2023-03-06T21:36:09.338Z,39.33
2023-03-06T21:38:12.664Z,52.28
2023-03-06T21:40:15.674Z,40.00
2023-03-06T21:42:20.113Z,56.72
2023-03-06T21:44:23.077Z,41.65
2023-03-06T21:46:26.837Z,29.25
2023-03-06T21:48:30.133Z,33.22
2023-03-06T21:50:33.014Z,41.00
2023-03-06T21:52:35.984Z,45.65
2023-03-06T21:54:39.025Z,40.90
2023-03-06T21:56:41.973Z,32.47
2023-03-06T21:58:46.728Z,29.08
2023-03-06T22:00:49.927Z,26.13
2023-03-06T22:02:53.281Z,25.10
2023-03-06T22:04:56.272Z,22.85
2023-03-06T22:06:59.182Z,22.63
2023-03-06T22:09:02.204Z,22.85
2023-03-06T22:11:10.122Z,23.70
2023-03-06T22:13:13.094Z,23.95
2023-03-06T22:15:17.706Z,22.38
2023-03-06T22:17:20.703Z,19.47
2023-03-06T22:19:23.842Z,25.52
2023-03-06T22:21:26.860Z,26.50
2023-03-06T22:23:29.659Z,22.77
2023-03-06T22:25:34.853Z,24.73
2023-03-06T22:27:37.670Z,23.55
2023-03-06T22:29:40.635Z,22.98
2023-03-06T22:31:45.090Z,23.45
2023-03-06T22:33:51.247Z,23.77
2023-03-06T22:35:59.508Z,23.63
2023-03-06T22:38:04.266Z,22.15
2023-03-06T22:40:08.129Z,24.70
2023-03-06T22:42:11.025Z,27.23
2023-03-06T22:44:16.829Z,25.67
2023-03-06T22:46:19.897Z,24.88
2023-03-06T22:48:24.236Z,26.30
2023-03-06T22:50:27.276Z,22.75
2023-03-06T22:52:30.082Z,26.42
2023-03-06T22:54:33.186Z,23.30
2023-03-06T22:56:36.638Z,26.45
2023-03-06T22:58:40.615Z,25.00
2023-03-06T23:00:43.545Z,20.45
2023-03-06T23:02:46.846Z,27.48
2023-03-06T23:04:54.537Z,28.30
2023-03-06T23:06:57.739Z,24.52
2023-03-06T23:09:03.722Z,25.17
2023-03-06T23:11:09.367Z,23.45
2023-03-06T23:13:30.921Z,23.38
2023-03-06T23:15:52.039Z,20.00
2023-03-06T23:18:13.287Z,27.80
2023-03-06T23:20:36.210Z,26.35
2023-03-06T23:22:57.836Z,27.88
2023-03-06T23:25:19.140Z,28.70
2023-03-06T23:27:22.231Z,27.88
2023-03-06T23:29:25.551Z,24.88
2023-03-06T23:31:30.012Z,24.70
2023-03-06T23:33:33.006Z,23.38
2023-03-06T23:35:39.485Z,25.20
2023-03-06T23:37:42.607Z,27.17
2023-03-06T23:39:45.661Z,27.70
2023-03-06T23:41:48.605Z,25.92
2023-03-06T23:43:54.062Z,26.90
2023-03-06T23:45:58.098Z,25.48
2023-03-06T23:48:00.998Z,18.98
2023-03-06T23:50:04.104Z,20.63
2023-03-06T23:52:08.632Z,23.17
2023-03-06T23:54:11.541Z,21.83
2023-03-06T23:56:14.935Z,22.50
2023-03-06T23:58:19.629Z,22.70
